This is the latest recevied weather packets stored in our database for station/object 9A3XK-13. If no packets are shown the sender has not sent any weather packets the latest 1 day(s).
| Time | Temp. | Humidity | Pressure | Rain* | Wind** | Luminosity | Snow |
|---|---|---|---|---|---|---|---|
| 1777980017 | 27.22° C | 31% | 1012.6 hPa | 0 mm | 1.79 m/s, 180° | 956 W/m² | - |
| 1777979717 | 27.22° C | 30% | 1012.6 hPa | 0 mm | 1.79 m/s, 225° | 889 W/m² | - |
| 1777979417 | 27.22° C | 33% | 1012.6 hPa | 0 mm | 1.34 m/s, 113° | 916 W/m² | - |
| 1777979117 | 26.67° C | 33% | 1012.7 hPa | 0 mm | 1.34 m/s, 135° | 1123 W/m² | - |
| 1777978817 | 26.67° C | 33% | 1012.8 hPa | 0 mm | 0.89 m/s, 158° | 529 W/m² | - |
| 1777978517 | 26.67° C | 33% | 1012.9 hPa | 0 mm | 1.79 m/s, 203° | 499 W/m² | - |
| 1777978217 | 26.67° C | 32% | 1012.9 hPa | 0 mm | 0.45 m/s, 203° | 478 W/m² | - |
| 1777977918 | 26.67° C | 31% | 1012.9 hPa | 0 mm | 1.34 m/s, 225° | 450 W/m² | - |
| 1777977616 | 26.67° C | 31% | 1013 hPa | 0 mm | 2.24 m/s, 158° | 686 W/m² | - |
| 1777977317 | 26.67° C | 34% | 1013 hPa | 0 mm | 0.45 m/s, 0° | 926 W/m² | - |
| 1777977017 | 26.67° C | 33% | 1013 hPa | 0 mm | 1.79 m/s, 180° | 924 W/m² | - |
| 1777976717 | 26.11° C | 33% | 1012.9 hPa | 0 mm | 2.24 m/s, 158° | 978 W/m² | - |
| 1777976457 | 26.11° C | 33% | 1013 hPa | 0 mm | 1.34 m/s, 203° | 1033 W/m² | - |
| 1777976117 | 26.11° C | 33% | 1013.1 hPa | 0 mm | 2.68 m/s, 248° | 722 W/m² | - |
| 1777975817 | 26.11° C | 33% | 1013.1 hPa | 0 mm | 0.89 m/s, 135° | 575 W/m² | - |
| 1777975517 | 25.56° C | 35% | 1013.1 hPa | 0 mm | 0.89 m/s, 135° | 1041 W/m² | - |
| 1777975217 | 25.56° C | 35% | 1013.1 hPa | 0 mm | 1.34 m/s, 225° | 1054 W/m² | - |
| 1777974917 | 25° C | 34% | 1013.1 hPa | 0 mm | 2.24 m/s, 225° | 763 W/m² | - |
| 1777974617 | 25° C | 36% | 1013.1 hPa | 0 mm | 1.79 m/s, 225° | 494 W/m² | - |
| 1777974317 | 25° C | 38% | 1013.2 hPa | 0 mm | 0.89 m/s, 135° | 877 W/m² | - |
| 1777974018 | 25° C | 38% | 1013.3 hPa | 0 mm | 1.79 m/s, 225° | 879 W/m² | - |
| 1777973717 | 24.44° C | 39% | 1013.4 hPa | 0 mm | 1.79 m/s, 225° | 868 W/m² | - |
| 1777973417 | 24.44° C | 40% | 1013.4 hPa | 0 mm | 1.79 m/s, 225° | 859 W/m² | - |
| 1777973229 | 23.89° C | 40% | 1013.5 hPa | 0 mm | 1.79 m/s, 225° | 829 W/m² | - |
| 1777972816 | 23.89° C | 40% | 1013.5 hPa | 0 mm | 1.79 m/s, 225° | 739 W/m² | - |
* Rain latest hour (hover to see other rain measurements)
** Current wind speed in m/s (hover to see current wind gust speed)